Stone Harbor, New Jersey
Current Conditions -  °F | °C
As of 7:35 AM on Thursday 23 Oct 2014 (Local Time) from KWWD Reporting Station
Overcast Overcast  
Wind Chill: 54°   Ceiling: 2500
Heat Index: 54°   Visibility: 10mi
Dew Point: 43°   Wind: 12mph
Humidity: 67%   Direction: 320°NW
Pressure: 29.74"   Gusts: 23mph
Location:  39.05°N, 74.76°W
Report Text: KWWD 231135Z AUTO 32010G20KT 290V350 10SM BKN025 OVC030 12/06 A2974 RMK AO1
Loading
Personal Weather Stations






























Interactive Weather Map New forecast layout! Learn more

10-Day Weather Forecast

Advertisements
Track Severe Weather on mobile